Time;durP1;ratioP1;P1;durP2;ratioP2;P2;SDS_P1;SDS_P2;PMS_P1;PMS_P2;Temp;Humidity;BMP_temperature;BMP_pressure;BME280_temperature;BME280_humidity;BME280_pressure;Samples;Min_cycle;Max_cycle;Signal;HPM_P1;HPM_P2
2022/04/13 00:00:07;;;;;;;5.20;2.95;;;11.90;90.00;;;;;;4142455;28;20112;-65
2022/04/13 00:02:09;;;;;;;5.30;2.45;;;11.90;90.30;;;;;;4141083;28;20105;-65
2022/04/13 00:04:11;;;;;;;3.95;2.35;;;11.90;90.10;;;;;;4140314;28;20054;-65
2022/04/13 00:06:15;;;;;;;2.75;2.50;;;11.90;90.00;;;;;;4140041;28;20663;-65
2022/04/13 00:08:16;;;;;;;2.63;2.00;;;12.00;90.00;;;;;;4140525;28;20059;-65
2022/04/13 00:10:18;;;;;;;3.25;2.40;;;12.00;90.00;;;;;;4139130;28;20069;-63
2022/04/13 00:12:20;;;;;;;2.15;2.05;;;12.00;90.00;;;;;;4138684;28;20783;-65
2022/04/13 00:14:23;;;;;;;2.70;2.35;;;12.00;89.60;;;;;;4139986;28;20178;-64
2022/04/13 00:16:25;;;;;;;2.22;2.03;;;12.00;90.10;;;;;;4139128;28;20868;-65
2022/04/13 00:18:26;;;;;;;3.65;2.25;;;12.00;89.80;;;;;;4142060;28;20054;-65
2022/04/13 00:20:28;;;;;;;2.22;2.00;;;12.10;87.60;;;;;;4139617;28;20065;-64
2022/04/13 00:22:30;;;;;;;2.67;2.20;;;12.10;86.10;;;;;;4138748;28;20170;-65
2022/04/13 00:24:32;;;;;;;3.38;2.25;;;12.20;85.20;;;;;;4135372;28;20069;-65
2022/04/13 00:26:33;;;;;;;3.03;2.35;;;12.20;86.20;;;;;;4134304;28;20069;-64
2022/04/13 00:28:36;;;;;;;2.05;1.85;;;12.30;85.90;;;;;;4142584;28;20078;-64
2022/04/13 00:30:37;;;;;;;1.90;1.70;;;12.30;86.10;;;;;;4141773;28;20177;-65
2022/04/13 00:32:39;;;;;;;3.83;2.08;;;12.30;87.10;;;;;;4121326;28;20135;-65
2022/04/13 00:34:41;;;;;;;3.70;1.88;;;12.30;87.20;;;;;;4139815;28;20068;-64
2022/04/13 00:36:43;;;;;;;4.57;1.85;;;12.30;86.00;;;;;;4138760;28;20832;-64
2022/04/13 00:38:45;;;;;;;6.30;2.40;;;12.30;85.70;;;;;;4140038;28;20634;-64
2022/04/13 00:40:47;;;;;;;5.25;2.35;;;12.30;85.80;;;;;;4137243;28;20063;-64
2022/04/13 00:42:49;;;;;;;3.15;1.92;;;12.30;84.90;;;;;;4138657;28;20969;-64
2022/04/13 00:44:51;;;;;;;2.30;2.10;;;12.30;85.50;;;;;;4140916;28;20214;-64
2022/04/13 00:46:53;;;;;;;5.25;2.75;;;12.20;86.20;;;;;;4123441;28;20062;-64
2022/04/13 00:48:55;;;;;;;5.93;1.73;;;12.20;87.90;;;;;;4138648;28;20055;-65
2022/04/13 00:50:57;;;;;;;6.68;1.88;;;12.10;88.80;;;;;;4139646;28;20181;-64
2022/04/13 00:52:59;;;;;;;5.63;2.42;;;12.10;88.60;;;;;;4137725;28;20161;-65
2022/04/13 00:55:06;;;;;;;3.10;2.80;;;12.00;88.80;;;;;;4140176;28;20058;-64
2022/04/13 00:57:09;;;;;;;3.97;2.88;;;11.90;89.20;;;;;;4127025;28;20101;-64
2022/04/13 00:59:13;;;;;;;4.50;3.38;;;11.80;89.60;;;;;;4138550;28;20064;-64
2022/04/13 01:01:15;;;;;;;2.92;2.60;;;11.80;89.80;;;;;;4138486;28;20584;-64
2022/04/13 01:03:19;;;;;;;4.07;2.15;;;11.70;89.70;;;;;;4136713;28;20055;-64
2022/04/13 01:05:22;;;;;;;2.78;2.58;;;11.60;90.00;;;;;;4121011;28;20051;-65
2022/04/13 01:07:24;;;;;;;3.85;2.65;;;11.50;90.10;;;;;;4140910;28;20100;-62
2022/04/13 01:09:26;;;;;;;7.13;3.50;;;11.50;90.20;;;;;;4138764;28;20166;-62
2022/04/13 01:11:27;;;;;;;5.13;3.10;;;11.50;90.00;;;;;;4120610;28;20063;-64
2022/04/13 01:13:29;;;;;;;4.78;2.65;;;11.50;90.60;;;;;;4139161;28;20185;-65
2022/04/13 01:15:32;;;;;;;5.45;2.50;;;11.40;90.30;;;;;;4140252;28;20788;-64
2022/04/13 01:17:34;;;;;;;3.75;3.35;;;11.40;90.50;;;;;;4120300;28;20094;-64
2022/04/13 01:19:37;;;;;;;2.63;2.20;;;11.40;90.40;;;;;;4137731;28;20051;-64
2022/04/13 01:21:45;;;;;;;3.70;3.35;;;11.40;90.50;;;;;;4138879;28;20145;-64
2022/04/13 01:23:46;;;;;;;3.85;2.17;;;11.40;90.20;;;;;;4143719;28;20096;-64
2022/04/13 01:25:49;;;;;;;7.03;2.70;;;11.30;90.30;;;;;;4142385;28;20176;-64
2022/04/13 01:27:51;;;;;;;5.20;2.33;;;11.30;90.40;;;;;;4142678;28;20097;-64
2022/04/13 01:29:54;;;;;;;6.93;2.35;;;11.20;90.40;;;;;;4141213;28;20059;-65
2022/04/13 01:31:57;;;;;;;2.72;2.53;;;11.20;90.70;;;;;;4142282;28;20168;-64
2022/04/13 01:34:00;;;;;;;2.90;2.13;;;11.20;90.70;;;;;;4142329;28;20055;-65
2022/04/13 01:36:02;;;;;;;2.20;2.00;;;11.20;90.70;;;;;;4141849;28;20211;-65
2022/04/13 01:38:04;;;;;;;3.80;2.10;;;11.20;90.70;;;;;;4139305;28;20078;-64
2022/04/13 01:40:06;;;;;;;6.03;2.65;;;11.20;90.70;;;;;;4144111;28;20253;-65
2022/04/13 01:42:09;;;;;;;3.55;2.05;;;11.10;90.80;;;;;;4143235;28;20181;-63
2022/04/13 01:44:11;;;;;;;5.30;2.90;;;11.00;90.80;;;;;;4140857;28;20790;-63
2022/04/13 01:46:13;;;;;;;2.38;2.10;;;10.90;90.90;;;;;;4141539;28;20181;-64
2022/04/13 01:48:15;;;;;;;3.05;2.30;;;10.90;91.00;;;;;;4141430;28;20047;-64
2022/04/13 01:50:18;;;;;;;3.90;2.42;;;10.80;91.10;;;;;;4144533;28;20056;-64
2022/04/13 01:52:20;;;;;;;3.60;1.95;;;10.90;91.20;;;;;;4137054;28;20058;-64
2022/04/13 01:54:22;;;;;;;3.92;2.70;;;11.00;90.90;;;;;;4141425;28;20061;-65
2022/04/13 01:56:24;;;;;;;4.82;2.40;;;10.90;91.00;;;;;;4137831;28;20058;-63
2022/04/13 01:58:25;;;;;;;2.92;2.38;;;10.80;91.20;;;;;;4131071;28;20855;-65
2022/04/13 02:00:27;;;;;;;3.60;2.45;;;10.80;91.30;;;;;;4138188;28;20914;-64
2022/04/13 02:02:29;;;;;;;4.03;2.45;;;10.70;91.30;;;;;;4140467;28;20062;-64
2022/04/13 02:04:31;;;;;;;2.55;2.28;;;10.70;91.40;;;;;;4135123;28;20134;-63
2022/04/13 02:06:34;;;;;;;2.63;2.33;;;10.70;91.50;;;;;;4144175;28;20065;-64
2022/04/13 02:08:35;;;;;;;2.45;2.25;;;10.60;91.60;;;;;;4140571;28;20109;-64
2022/04/13 02:10:37;;;;;;;2.67;2.10;;;10.60;91.60;;;;;;4141999;28;20054;-64
2022/04/13 02:12:41;;;;;;;9.02;2.38;;;10.60;91.70;;;;;;4142785;28;20615;-64
2022/04/13 02:14:43;;;;;;;8.98;2.28;;;10.60;91.90;;;;;;4140898;28;20844;-65
2022/04/13 02:16:46;;;;;;;4.90;2.58;;;10.70;91.70;;;;;;4142180;28;20165;-64
2022/04/13 02:18:48;;;;;;;3.80;1.73;;;10.70;91.70;;;;;;4143029;28;20161;-65
2022/04/13 02:20:50;;;;;;;6.38;2.10;;;10.70;91.60;;;;;;4140115;28;20872;-64
2022/04/13 02:22:51;;;;;;;10.40;3.00;;;10.70;91.60;;;;;;4141558;28;20807;-63
2022/04/13 02:24:53;;;;;;;2.08;1.90;;;10.70;91.60;;;;;;4142566;28;20101;-65
2022/04/13 02:26:55;;;;;;;2.03;1.83;;;10.60;91.70;;;;;;4141604;28;20094;-65
2022/04/13 02:28:57;;;;;;;4.88;2.42;;;10.60;91.70;;;;;;4187693;23;20172;-62
2022/04/13 02:30:58;;;;;;;4.97;2.20;;;10.60;91.70;;;;;;4190249;28;20057;-61
2022/04/13 02:33:01;;;;;;;5.15;2.17;;;10.60;91.80;;;;;;4185837;28;20763;-62
2022/04/13 02:35:04;;;;;;;2.30;2.08;;;10.60;91.90;;;;;;4188083;28;20080;-60
2022/04/13 02:37:06;;;;;;;2.90;2.38;;;10.60;91.90;;;;;;4188377;28;20908;-62
2022/04/13 02:39:07;;;;;;;2.42;2.22;;;10.50;91.90;;;;;;4191904;28;20864;-61
2022/04/13 02:41:09;;;;;;;8.77;2.60;;;10.40;92.00;;;;;;4190468;28;20205;-61
2022/04/13 02:43:11;;;;;;;16.27;8.65;;;10.40;92.20;;;;;;4188829;28;20862;-62
2022/04/13 02:45:13;;;;;;;10.23;6.93;;;10.30;92.40;;;;;;4191834;28;20230;-62
2022/04/13 02:47:14;;;;;;;28.42;14.50;;;10.30;92.40;;;;;;4190460;28;20061;-61
2022/04/13 02:49:16;;;;;;;52.10;26.80;;;10.30;92.60;;;;;;4188162;28;20079;-62
2022/04/13 02:51:18;;;;;;;67.25;33.22;;;10.20;92.70;;;;;;4191940;28;20056;-62
2022/04/13 02:53:20;;;;;;;10.90;6.70;;;10.10;92.80;;;;;;4186635;28;20061;-61
2022/04/13 02:55:22;;;;;;;7.65;5.05;;;10.10;93.00;;;;;;4187628;28;20782;-61
2022/04/13 02:57:25;;;;;;;9.35;7.30;;;10.10;93.10;;;;;;4191665;28;20057;-62
2022/04/13 02:59:26;;;;;;;18.25;11.15;;;10.20;93.20;;;;;;4187677;28;20878;-61
2022/04/13 03:01:28;;;;;;;10.18;6.85;;;10.20;92.80;;;;;;4191229;28;21119;-61
2022/04/13 03:03:30;;;;;;;13.52;6.20;;;10.30;92.70;;;;;;4191454;28;21228;-61
2022/04/13 03:05:33;;;;;;;8.05;5.40;;;10.20;92.80;;;;;;4191447;28;20172;-60
2022/04/13 03:07:35;;;;;;;11.32;6.25;;;10.10;93.20;;;;;;4188259;28;20060;-61
2022/04/13 03:09:37;;;;;;;6.18;3.70;;;10.00;93.30;;;;;;4187129;28;20097;-61
2022/04/13 03:11:40;;;;;;;5.75;4.07;;;10.00;93.70;;;;;;4190232;28;20056;-61
2022/04/13 03:13:42;;;;;;;6.40;4.10;;;10.00;93.80;;;;;;4178772;28;20069;-61
2022/04/13 03:15:44;;;;;;;5.50;3.67;;;10.10;93.80;;;;;;4188429;28;20111;-61
2022/04/13 03:17:45;;;;;;;4.90;3.30;;;10.10;93.60;;;;;;4185883;28;20906;-62
2022/04/13 03:19:48;;;;;;;4.72;4.07;;;10.10;93.60;;;;;;4188903;28;20143;-62
2022/04/13 03:21:51;;;;;;;8.32;6.32;;;10.10;93.40;;;;;;4189015;28;20060;-61
2022/04/13 03:23:53;;;;;;;11.13;5.43;;;10.10;93.40;;;;;;4192561;28;21012;-62
2022/04/13 03:25:55;;;;;;;6.82;5.88;;;10.10;93.50;;;;;;4189271;28;20053;-62
2022/04/13 03:27:57;;;;;;;10.57;5.97;;;10.10;93.50;;;;;;4186560;28;20068;-62
2022/04/13 03:29:59;;;;;;;10.38;7.07;;;10.00;93.60;;;;;;4193163;28;20846;-60
2022/04/13 03:32:00;;;;;;;20.58;13.32;;;9.90;93.80;;;;;;4186471;28;20061;-62
2022/04/13 03:34:02;;;;;;;29.70;16.10;;;9.90;94.10;;;;;;4193458;28;20071;-62
2022/04/13 03:36:04;;;;;;;9.77;6.15;;;9.80;94.20;;;;;;4189621;28;20912;-62
2022/04/13 03:38:06;;;;;;;11.70;5.88;;;9.80;94.40;;;;;;4188954;28;20061;-62
2022/04/13 03:40:10;;;;;;;9.32;5.55;;;9.80;94.40;;;;;;4189725;28;20859;-62
2022/04/13 03:42:12;;;;;;;5.07;4.45;;;9.80;94.30;;;;;;4187465;28;20786;-62
2022/04/13 03:44:13;;;;;;;11.40;7.90;;;9.80;94.40;;;;;;4191899;28;20171;-61
2022/04/13 03:46:15;;;;;;;8.40;6.13;;;9.80;94.50;;;;;;4189600;28;20171;-62
2022/04/13 03:48:17;;;;;;;15.02;11.00;;;9.80;94.50;;;;;;4186703;28;20970;-62
2022/04/13 03:50:19;;;;;;;41.67;26.10;;;9.70;94.70;;;;;;4194731;28;20711;-62
2022/04/13 03:52:22;;;;;;;6.50;5.90;;;9.70;94.70;;;;;;4187418;28;20155;-61
2022/04/13 03:54:23;;;;;;;4.57;3.42;;;9.70;94.90;;;;;;4193496;28;20065;-61
2022/04/13 03:56:25;;;;;;;8.82;5.10;;;9.70;95.10;;;;;;4191791;28;20058;-62
2022/04/13 03:58:27;;;;;;;10.57;5.25;;;9.70;95.00;;;;;;4191363;28;20127;-61
2022/04/13 04:00:30;;;;;;;8.00;3.70;;;9.60;95.10;;;;;;4193387;28;20057;-62
2022/04/13 04:02:33;;;;;;;9.18;4.00;;;9.70;95.10;;;;;;4191227;28;20056;-62
2022/04/13 04:04:35;;;;;;;5.53;3.17;;;9.60;95.30;;;;;;4193926;28;20123;-61
2022/04/13 04:06:36;;;;;;;7.05;4.68;;;9.50;95.50;;;;;;4185697;28;20053;-61
2022/04/13 04:08:38;;;;;;;9.43;5.10;;;9.50;95.70;;;;;;4191115;28;20806;-62
2022/04/13 04:10:40;;;;;;;8.43;5.40;;;9.50;95.80;;;;;;4188045;28;20099;-61
2022/04/13 04:12:42;;;;;;;7.55;5.88;;;9.60;95.70;;;;;;4175002;28;21373;-62
2022/04/13 04:14:44;;;;;;;6.93;6.25;;;9.60;95.70;;;;;;4192739;28;20131;-62
2022/04/13 04:16:45;;;;;;;14.80;8.93;;;9.60;95.60;;;;;;4191129;28;20061;-62
2022/04/13 04:18:50;;;;;;;11.80;9.02;;;9.60;95.60;;;;;;4186160;28;20092;-62
2022/04/13 04:20:51;;;;;;;35.03;23.35;;;9.50;95.90;;;;;;4189634;28;20160;-61
2022/04/13 04:22:55;;;;;;;35.33;20.25;;;9.50;96.10;;;;;;4189130;28;20159;-62
2022/04/13 04:25:01;;;;;;;20.20;14.98;;;9.40;96.40;;;;;;4189718;28;20057;-62
2022/04/13 04:27:03;;;;;;;21.27;13.50;;;9.40;96.40;;;;;;4187958;28;20645;-62
2022/04/13 04:29:05;;;;;;;22.05;13.63;;;9.40;96.60;;;;;;4188874;28;20067;-62
2022/04/13 04:31:07;;;;;;;15.20;13.10;;;9.30;96.60;;;;;;4190761;28;20053;-62
2022/04/13 04:33:12;;;;;;;14.10;10.95;;;9.40;96.70;;;;;;4188884;28;20095;-62
2022/04/13 04:35:14;;;;;;;20.20;11.43;;;9.40;96.80;;;;;;4188615;28;20057;-62
2022/04/13 04:37:17;;;;;;;14.10;10.00;;;9.40;96.60;;;;;;4192338;28;20155;-62
2022/04/13 04:39:19;;;;;;;9.55;8.63;;;9.40;96.70;;;;;;4190144;28;20172;-62
2022/04/13 04:41:21;;;;;;;8.43;6.20;;;9.30;97.00;;;;;;4190223;28;20059;-62
2022/04/13 04:43:22;;;;;;;7.55;5.78;;;9.30;97.10;;;;;;4190706;28;20057;-62
2022/04/13 04:45:25;;;;;;;6.38;5.80;;;9.30;97.30;;;;;;4188959;28;20064;-62
2022/04/13 04:47:26;;;;;;;5.53;5.03;;;9.30;97.40;;;;;;4192142;28;20877;-61
2022/04/13 04:49:28;;;;;;;4.80;4.32;;;9.30;97.50;;;;;;4193661;28;20127;-62
2022/04/13 04:51:33;;;;;;;5.43;4.93;;;9.30;97.50;;;;;;4187635;28;20072;-62
2022/04/13 04:53:35;;;;;;;4.35;3.70;;;9.30;97.60;;;;;;4189867;28;20136;-61
2022/04/13 04:55:37;;;;;;;4.72;4.20;;;9.30;98.20;;;;;;4188555;28;20904;-62
2022/04/13 04:57:39;;;;;;;3.40;3.10;;;9.20;98.40;;;;;;4186943;28;20057;-62
2022/04/13 04:59:41;;;;;;;7.57;3.42;;;9.20;98.50;;;;;;4190013;28;20085;-61
2022/04/13 05:01:43;;;;;;;3.25;2.95;;;9.20;98.50;;;;;;4186763;28;20065;-62
2022/04/13 05:03:48;;;;;;;7.40;3.20;;;9.30;98.20;;;;;;4185413;28;20057;-62
2022/04/13 05:05:51;;;;;;;4.93;3.75;;;9.40;98.00;;;;;;4188746;28;20889;-62
2022/04/13 05:07:53;;;;;;;5.88;3.17;;;9.50;97.70;;;;;;4184463;28;20063;-62
2022/04/13 05:09:54;;;;;;;3.65;3.10;;;9.50;97.50;;;;;;4190233;28;20159;-62
2022/04/13 05:11:56;;;;;;;3.70;2.90;;;9.50;97.40;;;;;;4190143;28;20058;-61
2022/04/13 05:13:58;;;;;;;5.25;2.95;;;9.50;97.70;;;;;;4186513;28;20112;-61
2022/04/13 05:15:59;;;;;;;3.42;2.80;;;9.60;97.70;;;;;;4187543;28;20131;-60
2022/04/13 05:18:01;;;;;;;3.22;2.70;;;9.60;97.70;;;;;;4187100;28;20701;-61
2022/04/13 05:20:05;;;;;;;4.40;3.03;;;9.70;97.50;;;;;;4186825;28;20061;-62
2022/04/13 05:22:06;;;;;;;6.93;2.70;;;9.70;97.50;;;;;;4184916;28;20177;-62
2022/04/13 05:24:08;;;;;;;4.78;3.00;;;9.80;97.30;;;;;;4183945;28;20062;-62
2022/04/13 05:26:11;;;;;;;3.75;3.00;;;9.80;97.20;;;;;;4186761;28;20062;-62
2022/04/13 05:28:12;;;;;;;7.82;3.20;;;9.90;96.90;;;;;;4188410;28;20108;-62
2022/04/13 05:30:14;;;;;;;4.13;2.78;;;10.00;96.80;;;;;;4188044;28;20068;-62
2022/04/13 05:32:16;;;;;;;3.55;3.08;;;10.10;96.60;;;;;;4187319;28;20049;-61
2022/04/13 05:34:17;;;;;;;3.78;2.83;;;10.20;96.50;;;;;;4188360;28;21197;-62
2022/04/13 05:36:19;;;;;;;3.60;3.13;;;10.20;96.30;;;;;;4182433;28;20233;-62
2022/04/13 05:38:21;;;;;;;4.65;3.05;;;10.40;96.20;;;;;;4186260;28;20148;-62
2022/04/13 05:40:24;;;;;;;6.45;4.38;;;10.50;96.40;;;;;;4188121;28;20092;-61
2022/04/13 05:42:25;;;;;;;9.40;3.30;;;10.60;96.10;;;;;;4188330;28;20058;-62
2022/04/13 05:44:27;;;;;;;15.32;4.65;;;10.70;96.10;;;;;;4186249;28;20056;-62
2022/04/13 05:46:29;;;;;;;6.68;3.83;;;10.70;96.10;;;;;;4190956;28;20069;-62
2022/04/13 05:48:31;;;;;;;7.20;3.97;;;10.70;96.30;;;;;;4186571;28;20071;-61
2022/04/13 05:50:32;;;;;;;7.57;4.25;;;10.70;96.10;;;;;;4187444;28;20754;-61
2022/04/13 05:52:35;;;;;;;8.98;4.55;;;10.80;96.10;;;;;;4190168;28;20061;-62
2022/04/13 05:54:37;;;;;;;11.30;4.68;;;10.80;96.00;;;;;;4186654;28;20093;-62
2022/04/13 05:56:39;;;;;;;6.22;4.00;;;10.90;96.40;;;;;;4189605;28;20788;-61
2022/04/13 05:58:41;;;;;;;5.50;3.40;;;11.00;96.00;;;;;;4190566;28;20092;-62
2022/04/13 06:00:43;;;;;;;5.90;3.70;;;11.10;95.90;;;;;;4190008;28;20053;-62
2022/04/13 06:02:45;;;;;;;8.13;3.15;;;11.20;96.10;;;;;;4188142;28;20061;-61
2022/04/13 06:04:47;;;;;;;4.85;3.55;;;11.30;95.60;;;;;;4192419;28;20061;-62
2022/04/13 06:06:50;;;;;;;9.88;4.15;;;11.50;95.20;;;;;;4191595;28;20057;-61
2022/04/13 06:08:51;;;;;;;6.47;3.53;;;11.60;94.90;;;;;;4192550;28;20061;-62
2022/04/13 06:10:59;;;;;;;3.78;3.38;;;11.70;95.00;;;;;;4191500;28;20878;-60
2022/04/13 06:13:01;;;;;;;8.82;4.13;;;11.70;95.00;;;;;;4191349;28;20063;-62
2022/04/13 06:15:08;;;;;;;5.15;3.85;;;11.90;94.60;;;;;;4195985;28;20068;-61
2022/04/13 06:17:10;;;;;;;7.10;3.90;;;12.00;93.40;;;;;;4195056;28;20075;-61
2022/04/13 06:19:12;;;;;;;7.00;4.20;;;12.10;93.70;;;;;;4192795;28;20053;-62
2022/04/13 06:21:14;;;;;;;5.10;4.15;;;12.20;94.20;;;;;;4191629;28;20111;-62
2022/04/13 06:23:18;;;;;;;6.25;3.80;;;12.20;93.70;;;;;;4195227;28;20067;-61
2022/04/13 06:25:20;;;;;;;8.32;3.85;;;12.30;93.70;;;;;;4198171;28;20060;-61
2022/04/13 06:27:21;;;;;;;9.52;4.32;;;12.40;93.20;;;;;;4196148;28;20136;-61
2022/04/13 06:29:23;;;;;;;9.10;4.30;;;12.40;93.40;;;;;;4195880;28;20099;-61
2022/04/13 06:31:25;;;;;;;8.82;3.85;;;12.50;92.80;;;;;;4184635;28;20057;-61
2022/04/13 06:33:27;;;;;;;8.95;4.05;;;12.60;92.50;;;;;;4190958;28;20055;-61
2022/04/13 06:35:29;;;;;;;4.78;3.55;;;12.70;92.80;;;;;;4186986;28;20061;-61
2022/04/13 06:37:30;;;;;;;10.23;4.03;;;12.80;92.20;;;;;;4190381;28;20172;-61
2022/04/13 06:39:32;;;;;;;6.57;3.90;;;13.00;91.30;;;;;;4187902;28;20105;-61
2022/04/13 06:41:34;;;;;;;5.13;4.38;;;13.20;90.90;;;;;;4186867;28;20061;-62
2022/04/13 06:43:36;;;;;;;6.07;4.25;;;13.20;91.40;;;;;;4194476;28;20599;-61
2022/04/13 06:45:39;;;;;;;6.85;3.95;;;13.30;91.20;;;;;;4190609;28;20841;-61
2022/04/13 06:47:41;;;;;;;9.82;4.63;;;13.30;91.30;;;;;;4186604;28;20863;-61
2022/04/13 06:49:44;;;;;;;9.82;3.95;;;13.40;91.20;;;;;;4184722;28;20638;-61
2022/04/13 06:51:46;;;;;;;8.60;4.45;;;13.50;91.10;;;;;;4192128;28;20096;-61
2022/04/13 06:53:48;;;;;;;4.05;2.92;;;13.60;90.90;;;;;;4197155;28;20072;-61
2022/04/13 06:55:49;;;;;;;4.60;3.75;;;13.70;90.50;;;;;;4186885;28;20481;-61
2022/04/13 06:57:51;;;;;;;11.80;3.65;;;13.80;90.40;;;;;;4190489;28;20064;-61
2022/04/13 06:59:53;;;;;;;4.25;3.75;;;13.90;90.50;;;;;;4193440;28;20148;-60
2022/04/13 07:01:55;;;;;;;4.35;2.95;;;14.00;90.20;;;;;;4196455;28;21874;-61
2022/04/13 07:03:57;;;;;;;6.07;3.45;;;14.10;90.00;;;;;;4193341;28;20072;-61
2022/04/13 07:05:59;;;;;;;9.77;3.63;;;14.20;90.10;;;;;;4191568;28;20064;-61
2022/04/13 07:08:02;;;;;;;10.18;3.78;;;14.20;88.70;;;;;;4193892;28;20067;-61
2022/04/13 07:10:05;;;;;;;8.70;3.60;;;14.30;88.80;;;;;;4194844;28;20786;-61
2022/04/13 07:12:14;;;;;;;16.02;4.60;;;14.40;88.60;;;;;;4191365;28;20879;-60
2022/04/13 07:14:16;;;;;;;8.48;3.80;;;14.50;87.90;;;;;;4193119;28;20061;-61
2022/04/13 07:16:17;;;;;;;6.13;3.40;;;14.60;88.30;;;;;;4190228;28;20057;-62
2022/04/13 07:18:19;;;;;;;10.02;4.28;;;14.70;86.50;;;;;;4217022;22;20081;-74
2022/04/13 07:20:21;;;;;;;11.27;3.58;;;14.80;86.10;;;;;;4197077;28;20148;-74
2022/04/13 07:22:24;;;;;;;6.00;3.22;;;14.90;85.70;;;;;;4200495;28;20049;-74
2022/04/13 07:24:27;;;;;;;8.23;3.38;;;15.00;86.20;;;;;;4208689;28;20641;-74
2022/04/13 07:26:29;;;;;;;5.88;2.60;;;15.10;83.10;;;;;;4206849;28;20866;-74
2022/04/13 07:28:31;;;;;;;9.80;2.15;;;15.30;76.40;;;;;;4193306;28;20050;-74
2022/04/13 07:30:33;;;;;;;5.10;2.45;;;15.40;76.40;;;;;;4211512;28;20149;-74
2022/04/13 07:32:35;;;;;;;5.68;1.83;;;15.50;74.20;;;;;;4211081;28;20075;-73
2022/04/13 07:34:37;;;;;;;6.20;2.28;;;15.60;74.10;;;;;;4207905;28;20047;-75
2022/04/13 07:36:39;;;;;;;4.00;1.65;;;15.70;69.10;;;;;;4210093;28;20179;-74
2022/04/13 07:38:40;;;;;;;4.05;1.50;;;16.00;65.40;;;;;;4207301;28;20094;-74
2022/04/13 07:40:42;;;;;;;10.90;2.42;;;16.10;65.80;;;;;;4205881;28;20051;-74
2022/04/13 07:42:50;;;;;;;4.07;1.63;;;16.20;67.10;;;;;;4205955;28;20057;-74
2022/04/13 07:44:54;;;;;;;4.05;1.52;;;16.20;68.00;;;;;;4208480;28;20147;-75
2022/04/13 07:47:00;;;;;;;6.00;1.45;;;16.30;68.50;;;;;;4209348;28;20060;-74
2022/04/13 07:49:05;;;;;;;5.60;1.30;;;16.30;67.60;;;;;;4210675;28;20060;-74
2022/04/13 07:51:07;;;;;;;5.03;1.58;;;16.40;66.40;;;;;;4207879;28;20057;-74
2022/04/13 07:53:09;;;;;;;4.63;2.15;;;16.60;66.00;;;;;;4206559;28;20052;-75
2022/04/13 07:55:11;;;;;;;8.57;3.05;;;16.70;67.70;;;;;;4212383;28;20783;-74
2022/04/13 07:57:13;;;;;;;5.82;3.08;;;16.80;68.70;;;;;;4210884;28;20822;-74
2022/04/13 07:59:15;;;;;;;6.80;3.10;;;17.00;68.30;;;;;;4206407;28;20057;-75
2022/04/13 08:01:17;;;;;;;7.90;2.92;;;17.00;70.20;;;;;;4205400;28;20057;-75
2022/04/13 08:03:18;;;;;;;5.78;2.60;;;17.10;69.20;;;;;;4210847;28;20060;-75
2022/04/13 08:05:35;;;;;;;5.65;3.17;;;17.10;68.80;;;;;;4213029;28;20056;-74
2022/04/13 08:07:37;;;;;;;5.45;2.70;;;17.30;70.10;;;;;;4205084;28;20056;-74
2022/04/13 08:09:39;;;;;;;6.50;2.88;;;17.30;70.50;;;;;;4207574;28;20091;-77
2022/04/13 08:11:41;;;;;;;7.28;2.85;;;17.30;70.70;;;;;;4208585;28;20099;-74
2022/04/13 08:13:42;;;;;;;4.10;2.65;;;17.40;70.20;;;;;;4210986;28;20053;-76
2022/04/13 08:15:50;;;;;;;6.55;2.53;;;17.40;67.20;;;;;;4202615;28;20151;-75
2022/04/13 08:17:51;;;;;;;9.27;2.53;;;17.30;69.50;;;;;;4210515;28;20067;-76
2022/04/13 08:19:54;;;;;;;7.40;2.80;;;17.30;70.50;;;;;;4211552;28;20119;-76
2022/04/13 08:21:56;;;;;;;3.30;2.17;;;17.30;69.90;;;;;;4206415;28;21122;-76
2022/04/13 08:23:57;;;;;;;5.85;2.38;;;17.40;68.60;;;;;;4210766;28;20152;-76
2022/04/13 08:25:59;;;;;;;7.47;2.28;;;17.50;66.10;;;;;;4205880;28;20159;-76
2022/04/13 08:28:01;;;;;;;8.87;2.73;;;17.50;67.20;;;;;;4222255;22;20175;-77
2022/04/13 08:30:03;;;;;;;3.95;2.00;;;17.50;67.60;;;;;;4211106;28;20058;-76
2022/04/13 08:32:05;;;;;;;5.28;1.60;;;17.60;66.30;;;;;;4211013;28;20063;-76
2022/04/13 08:34:07;;;;;;;7.70;2.13;;;17.60;64.50;;;;;;4195385;28;20154;-76
2022/04/13 08:36:09;;;;;;;4.35;1.42;;;17.70;63.70;;;;;;4193026;28;20932;-76
2022/04/13 08:38:11;;;;;;;8.02;1.63;;;17.80;63.50;;;;;;4208670;28;20056;-76
2022/04/13 08:40:13;;;;;;;2.38;1.67;;;17.80;61.20;;;;;;4196428;28;20060;-76
2022/04/13 08:42:23;;;;;;;2.85;1.90;;;17.90;61.00;;;;;;4195431;28;20068;-77
2022/04/13 08:44:34;;;;;;;2.30;1.55;;;17.90;61.90;;;;;;4195800;28;20084;-77
2022/04/13 08:46:39;;;;;;;7.30;2.05;;;18.00;59.80;;;;;;4212576;28;20065;-76
2022/04/13 08:48:45;;;;;;;4.05;1.40;;;18.00;60.40;;;;;;4213958;28;20080;-76
2022/04/13 08:50:50;;;;;;;4.90;1.75;;;18.10;59.30;;;;;;4214354;28;20083;-77
2022/04/13 08:52:57;;;;;;;5.78;1.08;;;18.20;57.90;;;;;;4210597;28;20872;-77
2022/04/13 08:55:11;;;;;;;4.57;2.03;;;18.20;58.50;;;;;;4212778;28;20171;-76
2022/04/13 08:57:17;;;;;;;4.03;1.65;;;18.20;59.20;;;;;;4190197;28;20064;-76
2022/04/13 09:00:09;;;;;;;3.67;1.48;;;18.30;56.90;;;;;;4189164;28;20064;-76
2022/04/13 09:02:25;;;;;;;7.50;1.98;;;18.40;57.00;;;;;;4188390;28;20068;-77
2022/04/13 09:04:30;;;;;;;6.10;1.80;;;18.60;57.80;;;;;;4205038;28;20061;-76
2022/04/13 09:06:33;;;;;;;7.05;1.83;;;18.70;57.60;;;;;;4196662;28;20830;-77
2022/04/13 09:08:53;;;;;;;4.10;1.50;;;18.70;55.30;;;;;;4189626;28;20168;-76
2022/04/13 09:10:54;;;;;;;6.63;1.63;;;18.80;55.80;;;;;;4201237;28;20096;-78
2022/04/13 09:12:57;;;;;;;6.45;1.75;;;18.90;55.30;;;;;;4202977;28;20092;-80
2022/04/13 09:15:02;;;;;;;3.60;1.90;;;18.90;55.40;;;;;;4187981;28;20053;-76
2022/04/13 09:17:05;;;;;;;4.72;2.00;;;18.90;55.90;;;;;;4189518;28;20053;-76
2022/04/13 09:19:07;;;;;;;8.05;2.00;;;19.00;55.00;;;;;;4213192;28;20056;-77
2022/04/13 09:21:20;;;;;;;4.10;1.73;;;19.00;55.10;;;;;;4196342;28;20099;-77
2022/04/13 09:23:25;;;;;;;7.03;1.67;;;19.10;55.40;;;;;;4204910;28;20056;-76
2022/04/13 09:25:31;;;;;;;4.50;1.67;;;19.20;54.70;;;;;;4205330;28;20417;-77
2022/04/13 09:27:35;;;;;;;9.73;2.22;;;19.20;55.80;;;;;;4191671;28;20061;-76
2022/04/13 09:29:37;;;;;;;7.63;1.40;;;19.30;55.80;;;;;;4212869;28;20151;-77
2022/04/13 09:31:39;;;;;;;6.10;1.90;;;19.30;55.00;;;;;;4210962;28;20110;-77
2022/04/13 09:33:41;;;;;;;5.45;1.50;;;19.40;54.10;;;;;;4195945;28;20053;-76
2022/04/13 09:35:42;;;;;;;3.03;1.33;;;19.40;54.30;;;;;;4195628;28;20156;-76
2022/04/13 09:37:44;;;;;;;5.97;2.20;;;19.30;55.30;;;;;;4196222;28;20159;-76
2022/04/13 09:39:47;;;;;;;3.65;1.80;;;19.20;55.00;;;;;;4212201;28;20159;-77
2022/04/13 09:41:51;;;;;;;8.23;2.00;;;19.20;56.00;;;;;;4214277;28;20067;-76
2022/04/13 09:43:56;;;;;;;9.10;1.90;;;19.20;54.40;;;;;;4216591;28;20179;-76
2022/04/13 09:45:58;;;;;;;11.32;1.77;;;19.30;53.50;;;;;;4187844;28;20061;-76
2022/04/13 09:48:03;;;;;;;6.65;1.75;;;19.30;54.20;;;;;;4215390;28;20056;-76
2022/04/13 09:50:05;;;;;;;2.47;1.55;;;19.40;54.80;;;;;;4197196;28;20057;-76
2022/04/13 09:52:06;;;;;;;4.85;1.90;;;19.40;56.00;;;;;;4215677;28;20104;-75
2022/04/13 09:54:12;;;;;;;3.40;2.15;;;19.40;55.90;;;;;;4216100;28;20807;-76
2022/04/13 09:56:17;;;;;;;2.78;1.77;;;19.40;55.00;;;;;;4226197;28;20059;-75
2022/04/13 09:58:22;;;;;;;6.07;2.05;;;19.40;55.30;;;;;;4221307;28;20079;-77
2022/04/13 10:00:24;;;;;;;6.15;1.73;;;19.60;54.00;;;;;;4214298;28;20107;-77
2022/04/13 10:02:40;;;;;;;5.20;2.00;;;19.60;54.70;;;;;;4212068;28;20061;-77
2022/04/13 10:04:42;;;;;;;4.47;1.60;;;19.60;54.30;;;;;;4210395;28;20052;-77
2022/04/13 10:06:43;;;;;;;4.85;1.67;;;19.50;54.50;;;;;;4211812;28;20056;-77
2022/04/13 10:08:59;;;;;;;5.50;2.05;;;19.40;54.20;;;;;;4212959;28;20769;-77
2022/04/13 10:11:02;;;;;;;10.82;1.83;;;19.40;54.30;;;;;;4210038;28;20072;-77
2022/04/13 10:13:06;;;;;;;6.60;2.25;;;19.40;54.60;;;;;;4195634;28;20060;-77
2022/04/13 10:15:08;;;;;;;5.53;2.17;;;19.40;55.50;;;;;;4213561;28;20853;-77
2022/04/13 10:17:12;;;;;;;5.22;2.00;;;19.60;54.30;;;;;;4209515;28;20065;-76
2022/04/13 10:19:18;;;;;;;10.77;2.42;;;19.70;54.00;;;;;;4197016;28;20151;-76
2022/04/13 10:21:40;;;;;;;7.30;2.83;;;19.80;54.20;;;;;;4197019;28;20075;-77
2022/04/13 10:23:42;;;;;;;5.40;2.00;;;19.80;53.50;;;;;;4207710;28;20155;-76
2022/04/13 10:25:44;;;;;;;7.90;2.10;;;19.80;53.70;;;;;;4215143;28;20155;-76
2022/04/13 10:27:54;;;;;;;4.90;2.22;;;19.90;55.10;;;;;;4216886;28;20068;-77
2022/04/13 10:30:05;;;;;;;6.05;2.67;;;20.10;53.50;;;;;;4216675;28;20099;-76
2022/04/13 10:32:07;;;;;;;;;;;20.10;54.00;;;;;;4199652;28;20057;-75
2022/04/13 10:34:09;;;;;;;7.97;1.98;;;20.10;53.00;;;;;;4215297;28;19939;-76
2022/04/13 10:36:11;;;;;;;3.53;2.15;;;20.10;53.80;;;;;;4217015;28;20155;-76
2022/04/13 10:38:13;;;;;;;5.68;2.60;;;20.10;53.70;;;;;;4198408;28;20057;-76
2022/04/13 10:40:15;;;;;;;7.93;2.03;;;20.20;51.80;;;;;;4214189;28;20064;-76